Arkansas Post National Memor, Arkansas
Current Conditions -  °F | °C
As of 3:53 PM on Tuesday 21 Oct 2014 (Local Time) from KPBF Reporting Station
Few Clouds Few Clouds  
Wind Chill: 78°   Ceiling: Unl
Heat Index: 79°   Visibility: 10mi
Dew Point: 54°   Wind: 5mph
Humidity: 43%   Direction: 350°N
Pressure: 30.04"   Gusts: NA
Location:  34.1564°N, 91.3915°W
Report Text: KPBF 212053Z AUTO 35004KT 10SM FEW050 26/12 A3004 RMK AO2 SLP169 T02560122 56018
Loading
Personal Weather Stations






























Interactive Weather Map New forecast layout! Learn more

10-Day Weather Forecast

Advertisements
Track Severe Weather on mobile